sensor_id;sensor_type;location;lat;lon;timestamp;temperature;humidity
14411;DHT22;7290;50.854;4.354;2023-04-19T00:01:38;11.20;99.90
14411;DHT22;7290;50.854;4.354;2023-04-19T00:04:04;10.90;99.90
14411;DHT22;7290;50.854;4.354;2023-04-19T00:06:30;10.70;99.90
14411;DHT22;7290;50.854;4.354;2023-04-19T00:08:56;10.60;99.90
14411;DHT22;7290;50.854;4.354;2023-04-19T00:11:22;10.60;99.90
14411;DHT22;7290;50.854;4.354;2023-04-19T00:13:48;10.70;99.90
14411;DHT22;7290;50.854;4.354;2023-04-19T00:16:15;10.70;99.90
14411;DHT22;7290;50.854;4.354;2023-04-19T00:18:42;10.60;99.90
14411;DHT22;7290;50.854;4.354;2023-04-19T00:21:08;10.60;99.90
14411;DHT22;7290;50.854;4.354;2023-04-19T00:23:34;10.50;99.90
14411;DHT22;7290;50.854;4.354;2023-04-19T00:26:01;10.40;99.90
14411;DHT22;7290;50.854;4.354;2023-04-19T00:28:28;10.30;99.90
14411;DHT22;7290;50.854;4.354;2023-04-19T00:30:54;10.30;99.90
14411;DHT22;7290;50.854;4.354;2023-04-19T00:33:20;10.40;99.90
14411;DHT22;7290;50.854;4.354;2023-04-19T00:35:47;10.30;99.90
14411;DHT22;7290;50.854;4.354;2023-04-19T00:38:13;10.30;99.90
14411;DHT22;7290;50.854;4.354;2023-04-19T00:40:39;10.40;99.90
14411;DHT22;7290;50.854;4.354;2023-04-19T00:43:06;10.30;99.90
14411;DHT22;7290;50.854;4.354;2023-04-19T00:45:34;10.40;99.90
14411;DHT22;7290;50.854;4.354;2023-04-19T00:48:01;10.50;99.90
14411;DHT22;7290;50.854;4.354;2023-04-19T00:50:27;10.50;99.90
14411;DHT22;7290;50.854;4.354;2023-04-19T00:52:54;10.40;99.90
14411;DHT22;7290;50.854;4.354;2023-04-19T00:55:21;10.30;99.90
14411;DHT22;7290;50.854;4.354;2023-04-19T00:57:48;10.40;99.90
14411;DHT22;7290;50.854;4.354;2023-04-19T01:00:16;10.40;99.90
14411;DHT22;7290;50.854;4.354;2023-04-19T01:02:42;10.50;99.90
14411;DHT22;7290;50.854;4.354;2023-04-19T01:05:09;10.40;99.90
14411;DHT22;7290;50.854;4.354;2023-04-19T01:07:35;10.60;99.90
14411;DHT22;7290;50.854;4.354;2023-04-19T01:10:02;10.20;99.90
14411;DHT22;7290;50.854;4.354;2023-04-19T01:12:28;10.20;99.90
14411;DHT22;7290;50.854;4.354;2023-04-19T01:14:54;10.10;99.90
14411;DHT22;7290;50.854;4.354;2023-04-19T01:17:20;10.10;99.90
14411;DHT22;7290;50.854;4.354;2023-04-19T01:19:47;10.10;99.90
14411;DHT22;7290;50.854;4.354;2023-04-19T01:22:15;10.20;99.90
14411;DHT22;7290;50.854;4.354;2023-04-19T01:24:42;10.20;99.90
14411;DHT22;7290;50.854;4.354;2023-04-19T01:27:08;10.10;99.90
14411;DHT22;7290;50.854;4.354;2023-04-19T01:29:35;10.20;99.90
14411;DHT22;7290;50.854;4.354;2023-04-19T01:32:01;10.20;99.90
14411;DHT22;7290;50.854;4.354;2023-04-19T01:34:28;10.30;99.90
14411;DHT22;7290;50.854;4.354;2023-04-19T01:36:54;10.30;99.90
14411;DHT22;7290;50.854;4.354;2023-04-19T01:39:21;10.20;99.90
14411;DHT22;7290;50.854;4.354;2023-04-19T01:41:47;10.10;99.90
14411;DHT22;7290;50.854;4.354;2023-04-19T01:44:13;10.10;99.90
14411;DHT22;7290;50.854;4.354;2023-04-19T01:46:40;10.20;99.90
14411;DHT22;7290;50.854;4.354;2023-04-19T01:49:07;9.90;99.90
14411;DHT22;7290;50.854;4.354;2023-04-19T01:51:33;9.80;99.90
14411;DHT22;7290;50.854;4.354;2023-04-19T01:53:59;9.90;99.90
14411;DHT22;7290;50.854;4.354;2023-04-19T01:56:27;10.10;99.90
14411;DHT22;7290;50.854;4.354;2023-04-19T01:58:53;10.20;99.90
14411;DHT22;7290;50.854;4.354;2023-04-19T02:01:19;10.10;99.90
14411;DHT22;7290;50.854;4.354;2023-04-19T02:03:45;10.20;99.90
14411;DHT22;7290;50.854;4.354;2023-04-19T02:06:13;10.10;99.90
14411;DHT22;7290;50.854;4.354;2023-04-19T02:08:40;10.00;99.90
14411;DHT22;7290;50.854;4.354;2023-04-19T02:11:06;10.00;99.90
14411;DHT22;7290;50.854;4.354;2023-04-19T02:13:34;10.10;99.90
14411;DHT22;7290;50.854;4.354;2023-04-19T02:16:00;10.30;99.90
14411;DHT22;7290;50.854;4.354;2023-04-19T02:18:27;10.20;99.90
14411;DHT22;7290;50.854;4.354;2023-04-19T02:20:54;10.20;99.90
14411;DHT22;7290;50.854;4.354;2023-04-19T02:23:20;10.10;99.90
14411;DHT22;7290;50.854;4.354;2023-04-19T02:25:46;10.00;99.90
14411;DHT22;7290;50.854;4.354;2023-04-19T02:28:12;10.00;99.90
14411;DHT22;7290;50.854;4.354;2023-04-19T02:30:39;9.90;99.90
14411;DHT22;7290;50.854;4.354;2023-04-19T02:33:05;10.10;99.90
14411;DHT22;7290;50.854;4.354;2023-04-19T02:35:32;10.30;99.90
14411;DHT22;7290;50.854;4.354;2023-04-19T02:37:58;10.30;99.90
14411;DHT22;7290;50.854;4.354;2023-04-19T02:40:24;10.30;99.90
14411;DHT22;7290;50.854;4.354;2023-04-19T02:42:51;10.20;99.90
14411;DHT22;7290;50.854;4.354;2023-04-19T02:45:17;10.20;99.90
14411;DHT22;7290;50.854;4.354;2023-04-19T02:47:44;10.40;99.90
14411;DHT22;7290;50.854;4.354;2023-04-19T02:50:11;10.60;99.90
14411;DHT22;7290;50.854;4.354;2023-04-19T02:52:37;10.80;99.90
14411;DHT22;7290;50.854;4.354;2023-04-19T02:55:05;10.90;99.90
14411;DHT22;7290;50.854;4.354;2023-04-19T02:57:31;10.70;99.90
14411;DHT22;7290;50.854;4.354;2023-04-19T02:59:57;10.50;99.90
14411;DHT22;7290;50.854;4.354;2023-04-19T03:02:23;10.50;99.90
14411;DHT22;7290;50.854;4.354;2023-04-19T03:04:50;10.50;99.90
14411;DHT22;7290;50.854;4.354;2023-04-19T03:07:18;10.60;99.90
14411;DHT22;7290;50.854;4.354;2023-04-19T03:09:44;10.80;99.90
14411;DHT22;7290;50.854;4.354;2023-04-19T03:12:10;11.00;99.90
14411;DHT22;7290;50.854;4.354;2023-04-19T03:14:36;10.70;99.90
14411;DHT22;7290;50.854;4.354;2023-04-19T03:17:03;10.70;99.90
14411;DHT22;7290;50.854;4.354;2023-04-19T03:19:29;10.70;99.90
14411;DHT22;7290;50.854;4.354;2023-04-19T03:21:55;10.60;99.90
14411;DHT22;7290;50.854;4.354;2023-04-19T03:24:26;10.70;99.90
14411;DHT22;7290;50.854;4.354;2023-04-19T03:26:52;11.00;99.90
14411;DHT22;7290;50.854;4.354;2023-04-19T03:29:18;11.00;99.90
14411;DHT22;7290;50.854;4.354;2023-04-19T03:31:44;10.80;99.90
14411;DHT22;7290;50.854;4.354;2023-04-19T03:34:11;10.90;99.90
14411;DHT22;7290;50.854;4.354;2023-04-19T03:36:37;11.10;99.90
14411;DHT22;7290;50.854;4.354;2023-04-19T03:39:04;11.10;99.90
14411;DHT22;7290;50.854;4.354;2023-04-19T03:41:30;10.90;99.90
14411;DHT22;7290;50.854;4.354;2023-04-19T03:43:57;10.70;99.90
14411;DHT22;7290;50.854;4.354;2023-04-19T03:46:23;10.80;99.90
14411;DHT22;7290;50.854;4.354;2023-04-19T03:48:49;10.70;99.90
14411;DHT22;7290;50.854;4.354;2023-04-19T03:51:16;10.70;99.90
14411;DHT22;7290;50.854;4.354;2023-04-19T03:53:42;10.70;99.90
14411;DHT22;7290;50.854;4.354;2023-04-19T03:56:09;10.80;99.90
14411;DHT22;7290;50.854;4.354;2023-04-19T03:58:35;10.80;99.90
14411;DHT22;7290;50.854;4.354;2023-04-19T04:01:02;10.80;99.90
14411;DHT22;7290;50.854;4.354;2023-04-19T04:03:28;10.90;99.90
14411;DHT22;7290;50.854;4.354;2023-04-19T04:05:54;10.90;99.90
14411;DHT22;7290;50.854;4.354;2023-04-19T04:08:20;11.00;99.90
14411;DHT22;7290;50.854;4.354;2023-04-19T04:10:46;10.90;99.90
14411;DHT22;7290;50.854;4.354;2023-04-19T04:13:12;10.80;99.90
14411;DHT22;7290;50.854;4.354;2023-04-19T04:15:39;10.70;99.90
14411;DHT22;7290;50.854;4.354;2023-04-19T04:18:05;10.70;99.90
14411;DHT22;7290;50.854;4.354;2023-04-19T04:20:31;10.90;99.90
14411;DHT22;7290;50.854;4.354;2023-04-19T04:22:57;11.00;99.90
14411;DHT22;7290;50.854;4.354;2023-04-19T04:25:23;11.00;99.90
14411;DHT22;7290;50.854;4.354;2023-04-19T04:27:50;10.90;99.90
14411;DHT22;7290;50.854;4.354;2023-04-19T04:30:17;10.80;99.90
14411;DHT22;7290;50.854;4.354;2023-04-19T04:32:43;10.70;99.90
14411;DHT22;7290;50.854;4.354;2023-04-19T04:35:11;10.70;99.90
14411;DHT22;7290;50.854;4.354;2023-04-19T04:37:37;10.70;99.90
14411;DHT22;7290;50.854;4.354;2023-04-19T04:40:05;10.70;99.90
14411;DHT22;7290;50.854;4.354;2023-04-19T04:42:32;10.70;99.90
14411;DHT22;7290;50.854;4.354;2023-04-19T04:44:58;10.60;99.90
14411;DHT22;7290;50.854;4.354;2023-04-19T04:47:30;10.70;99.90
14411;DHT22;7290;50.854;4.354;2023-04-19T04:49:57;10.80;99.90
14411;DHT22;7290;50.854;4.354;2023-04-19T04:52:23;10.90;99.90
14411;DHT22;7290;50.854;4.354;2023-04-19T04:54:49;11.00;99.90
14411;DHT22;7290;50.854;4.354;2023-04-19T04:57:15;11.10;99.90
14411;DHT22;7290;50.854;4.354;2023-04-19T04:59:41;11.00;99.90
14411;DHT22;7290;50.854;4.354;2023-04-19T05:02:07;11.00;99.90
14411;DHT22;7290;50.854;4.354;2023-04-19T05:04:34;11.20;99.90
14411;DHT22;7290;50.854;4.354;2023-04-19T05:07:00;11.30;99.90
14411;DHT22;7290;50.854;4.354;2023-04-19T05:09:26;11.20;99.90
14411;DHT22;7290;50.854;4.354;2023-04-19T05:11:52;10.90;99.90
14411;DHT22;7290;50.854;4.354;2023-04-19T05:14:18;10.80;99.90
14411;DHT22;7290;50.854;4.354;2023-04-19T05:16:45;10.70;99.90
14411;DHT22;7290;50.854;4.354;2023-04-19T05:19:11;10.90;99.90
14411;DHT22;7290;50.854;4.354;2023-04-19T05:21:37;10.90;99.90
14411;DHT22;7290;50.854;4.354;2023-04-19T05:24:04;10.90;99.90
14411;DHT22;7290;50.854;4.354;2023-04-19T05:26:30;11.10;99.90
14411;DHT22;7290;50.854;4.354;2023-04-19T05:28:57;11.00;99.90
14411;DHT22;7290;50.854;4.354;2023-04-19T05:31:23;10.80;99.90
14411;DHT22;7290;50.854;4.354;2023-04-19T05:33:52;10.70;99.90
14411;DHT22;7290;50.854;4.354;2023-04-19T05:36:19;10.90;99.90
14411;DHT22;7290;50.854;4.354;2023-04-19T05:38:45;11.00;99.90
14411;DHT22;7290;50.854;4.354;2023-04-19T05:41:11;11.10;99.90
14411;DHT22;7290;50.854;4.354;2023-04-19T05:43:37;11.10;99.90
14411;DHT22;7290;50.854;4.354;2023-04-19T05:46:03;11.20;99.90
14411;DHT22;7290;50.854;4.354;2023-04-19T05:48:29;10.90;99.90
14411;DHT22;7290;50.854;4.354;2023-04-19T05:50:55;11.00;99.90
14411;DHT22;7290;50.854;4.354;2023-04-19T05:53:22;10.90;99.90
14411;DHT22;7290;50.854;4.354;2023-04-19T05:55:49;11.00;99.90
14411;DHT22;7290;50.854;4.354;2023-04-19T05:58:16;11.00;99.90
14411;DHT22;7290;50.854;4.354;2023-04-19T06:00:42;10.90;99.90
14411;DHT22;7290;50.854;4.354;2023-04-19T06:03:09;10.90;99.90
14411;DHT22;7290;50.854;4.354;2023-04-19T06:05:35;10.90;99.90
14411;DHT22;7290;50.854;4.354;2023-04-19T06:08:01;11.00;99.90
14411;DHT22;7290;50.854;4.354;2023-04-19T06:10:27;11.00;99.90
14411;DHT22;7290;50.854;4.354;2023-04-19T06:12:54;11.00;99.90
14411;DHT22;7290;50.854;4.354;2023-04-19T06:15:20;11.00;99.90
14411;DHT22;7290;50.854;4.354;2023-04-19T06:17:47;11.00;99.90
14411;DHT22;7290;50.854;4.354;2023-04-19T06:20:13;11.00;99.90
14411;DHT22;7290;50.854;4.354;2023-04-19T06:22:42;10.90;99.90
14411;DHT22;7290;50.854;4.354;2023-04-19T06:25:09;11.00;99.90
14411;DHT22;7290;50.854;4.354;2023-04-19T06:27:35;10.90;99.90
14411;DHT22;7290;50.854;4.354;2023-04-19T06:30:02;11.00;99.90
14411;DHT22;7290;50.854;4.354;2023-04-19T06:32:28;11.10;99.90
14411;DHT22;7290;50.854;4.354;2023-04-19T06:34:54;11.30;99.90
14411;DHT22;7290;50.854;4.354;2023-04-19T06:37:20;11.50;99.90
14411;DHT22;7290;50.854;4.354;2023-04-19T06:39:47;11.60;99.90
14411;DHT22;7290;50.854;4.354;2023-04-19T06:42:13;11.60;99.90
14411;DHT22;7290;50.854;4.354;2023-04-19T06:44:40;11.50;99.90
14411;DHT22;7290;50.854;4.354;2023-04-19T06:47:06;11.50;99.90
14411;DHT22;7290;50.854;4.354;2023-04-19T06:49:33;11.90;99.90
14411;DHT22;7290;50.854;4.354;2023-04-19T06:51:59;12.00;99.90
14411;DHT22;7290;50.854;4.354;2023-04-19T06:54:25;12.60;99.90
14411;DHT22;7290;50.854;4.354;2023-04-19T06:56:51;13.80;99.90
14411;DHT22;7290;50.854;4.354;2023-04-19T06:59:19;14.80;99.90
14411;DHT22;7290;50.854;4.354;2023-04-19T07:01:46;15.80;99.90
14411;DHT22;7290;50.854;4.354;2023-04-19T07:04:13;15.70;99.90
14411;DHT22;7290;50.854;4.354;2023-04-19T07:06:39;14.30;99.90
14411;DHT22;7290;50.854;4.354;2023-04-19T07:09:06;14.10;99.90
14411;DHT22;7290;50.854;4.354;2023-04-19T07:11:32;14.40;99.90
14411;DHT22;7290;50.854;4.354;2023-04-19T07:13:58;13.50;99.90
14411;DHT22;7290;50.854;4.354;2023-04-19T07:16:25;13.60;99.90
14411;DHT22;7290;50.854;4.354;2023-04-19T07:18:51;13.00;99.90
14411;DHT22;7290;50.854;4.354;2023-04-19T07:21:18;12.80;99.90
14411;DHT22;7290;50.854;4.354;2023-04-19T07:23:44;13.00;99.90
14411;DHT22;7290;50.854;4.354;2023-04-19T07:26:10;12.60;99.90
14411;DHT22;7290;50.854;4.354;2023-04-19T07:28:38;12.80;99.90
14411;DHT22;7290;50.854;4.354;2023-04-19T07:31:04;13.30;99.90
14411;DHT22;7290;50.854;4.354;2023-04-19T07:33:31;13.00;99.90
14411;DHT22;7290;50.854;4.354;2023-04-19T07:35:57;12.80;99.90
14411;DHT22;7290;50.854;4.354;2023-04-19T07:38:24;13.00;99.90
14411;DHT22;7290;50.854;4.354;2023-04-19T07:40:50;13.40;99.90
14411;DHT22;7290;50.854;4.354;2023-04-19T07:43:16;13.80;99.90
14411;DHT22;7290;50.854;4.354;2023-04-19T07:45:42;14.30;99.90
14411;DHT22;7290;50.854;4.354;2023-04-19T07:48:08;14.40;99.90
14411;DHT22;7290;50.854;4.354;2023-04-19T07:50:35;14.30;99.90
14411;DHT22;7290;50.854;4.354;2023-04-19T07:53:01;13.90;99.90
14411;DHT22;7290;50.854;4.354;2023-04-19T07:55:28;13.80;99.90
14411;DHT22;7290;50.854;4.354;2023-04-19T07:57:54;13.10;99.90
14411;DHT22;7290;50.854;4.354;2023-04-19T08:00:20;13.10;99.90
14411;DHT22;7290;50.854;4.354;2023-04-19T08:02:47;13.40;99.90
14411;DHT22;7290;50.854;4.354;2023-04-19T08:05:14;13.80;99.90
14411;DHT22;7290;50.854;4.354;2023-04-19T08:07:41;14.10;99.90
14411;DHT22;7290;50.854;4.354;2023-04-19T08:10:08;14.20;99.90
14411;DHT22;7290;50.854;4.354;2023-04-19T08:12:35;14.40;99.90
14411;DHT22;7290;50.854;4.354;2023-04-19T08:15:02;15.40;99.90
14411;DHT22;7290;50.854;4.354;2023-04-19T08:17:28;15.90;99.90
14411;DHT22;7290;50.854;4.354;2023-04-19T08:19:54;16.70;99.90
14411;DHT22;7290;50.854;4.354;2023-04-19T08:22:20;18.10;99.90
14411;DHT22;7290;50.854;4.354;2023-04-19T08:24:48;20.50;99.90
14411;DHT22;7290;50.854;4.354;2023-04-19T08:27:14;20.10;99.90
14411;DHT22;7290;50.854;4.354;2023-04-19T08:29:41;20.50;99.90
14411;DHT22;7290;50.854;4.354;2023-04-19T08:32:07;19.50;99.90
14411;DHT22;7290;50.854;4.354;2023-04-19T08:34:33;18.10;99.90
14411;DHT22;7290;50.854;4.354;2023-04-19T08:37:00;18.10;99.90
14411;DHT22;7290;50.854;4.354;2023-04-19T08:39:27;17.00;99.90
14411;DHT22;7290;50.854;4.354;2023-04-19T08:41:54;16.80;99.90
14411;DHT22;7290;50.854;4.354;2023-04-19T08:44:21;17.30;99.90
14411;DHT22;7290;50.854;4.354;2023-04-19T08:46:49;19.90;99.90
14411;DHT22;7290;50.854;4.354;2023-04-19T08:49:15;20.70;99.90
14411;DHT22;7290;50.854;4.354;2023-04-19T08:51:46;20.20;99.90
14411;DHT22;7290;50.854;4.354;2023-04-19T08:54:12;20.60;99.90
14411;DHT22;7290;50.854;4.354;2023-04-19T08:56:39;20.30;99.90
14411;DHT22;7290;50.854;4.354;2023-04-19T08:59:05;20.70;99.90
14411;DHT22;7290;50.854;4.354;2023-04-19T09:01:31;20.10;99.90
14411;DHT22;7290;50.854;4.354;2023-04-19T09:03:58;18.40;99.90
14411;DHT22;7290;50.854;4.354;2023-04-19T09:06:24;17.80;99.90
14411;DHT22;7290;50.854;4.354;2023-04-19T09:08:50;18.70;99.90
14411;DHT22;7290;50.854;4.354;2023-04-19T09:11:35;18.80;99.90
14411;DHT22;7290;50.854;4.354;2023-04-19T09:14:07;21.40;99.90
14411;DHT22;7290;50.854;4.354;2023-04-19T09:16:34;22.90;99.50
14411;DHT22;7290;50.854;4.354;2023-04-19T09:19:01;23.00;99.40
14411;DHT22;7290;50.854;4.354;2023-04-19T09:21:28;22.70;98.80
14411;DHT22;7290;50.854;4.354;2023-04-19T09:23:55;22.60;99.30
14411;DHT22;7290;50.854;4.354;2023-04-19T09:26:21;22.80;98.70
14411;DHT22;7290;50.854;4.354;2023-04-19T09:28:55;22.90;98.60
14411;DHT22;7290;50.854;4.354;2023-04-19T09:31:21;21.90;99.00
14411;DHT22;7290;50.854;4.354;2023-04-19T09:33:47;20.30;99.90
14411;DHT22;7290;50.854;4.354;2023-04-19T09:36:26;22.10;99.90
14411;DHT22;7290;50.854;4.354;2023-04-19T09:38:53;23.30;98.10
14411;DHT22;7290;50.854;4.354;2023-04-19T09:41:19;23.50;97.20
14411;DHT22;7290;50.854;4.354;2023-04-19T09:43:46;20.60;99.90
14411;DHT22;7290;50.854;4.354;2023-04-19T09:46:30;21.80;99.00
14411;DHT22;7290;50.854;4.354;2023-04-19T09:49:14;21.40;99.80
14411;DHT22;7290;50.854;4.354;2023-04-19T09:51:41;21.00;99.80
14411;DHT22;7290;50.854;4.354;2023-04-19T09:54:09;21.10;99.90
14411;DHT22;7290;50.854;4.354;2023-04-19T09:56:36;19.80;99.90
14411;DHT22;7290;50.854;4.354;2023-04-19T09:59:03;19.70;99.90
14411;DHT22;7290;50.854;4.354;2023-04-19T10:01:30;19.50;99.90
14411;DHT22;7290;50.854;4.354;2023-04-19T10:03:59;21.10;99.90
14411;DHT22;7290;50.854;4.354;2023-04-19T10:06:26;22.10;99.40
14411;DHT22;7290;50.854;4.354;2023-04-19T10:08:53;24.00;97.20
14411;DHT22;7290;50.854;4.354;2023-04-19T10:11:20;24.10;96.30
14411;DHT22;7290;50.854;4.354;2023-04-19T10:13:48;23.90;95.70
14411;DHT22;7290;50.854;4.354;2023-04-19T10:16:15;23.90;95.20
14411;DHT22;7290;50.854;4.354;2023-04-19T10:18:42;24.10;95.90
14411;DHT22;7290;50.854;4.354;2023-04-19T10:21:09;24.40;94.20
14411;DHT22;7290;50.854;4.354;2023-04-19T10:23:36;23.70;95.50
14411;DHT22;7290;50.854;4.354;2023-04-19T10:26:03;23.60;96.10
14411;DHT22;7290;50.854;4.354;2023-04-19T10:28:29;23.20;96.40
14411;DHT22;7290;50.854;4.354;2023-04-19T10:30:58;24.90;94.60
14411;DHT22;7290;50.854;4.354;2023-04-19T10:33:27;26.80;92.60
14411;DHT22;7290;50.854;4.354;2023-04-19T10:35:55;26.10;92.20
14411;DHT22;7290;50.854;4.354;2023-04-19T10:38:35;24.00;94.10
14411;DHT22;7290;50.854;4.354;2023-04-19T10:41:01;22.80;95.30
14411;DHT22;7290;50.854;4.354;2023-04-19T10:43:30;22.10;95.90
14411;DHT22;7290;50.854;4.354;2023-04-19T10:45:58;21.30;97.70
14411;DHT22;7290;50.854;4.354;2023-04-19T10:48:36;22.70;95.90
14411;DHT22;7290;50.854;4.354;2023-04-19T10:51:05;23.50;95.40
14411;DHT22;7290;50.854;4.354;2023-04-19T10:53:52;25.30;93.60
14411;DHT22;7290;50.854;4.354;2023-04-19T10:56:20;26.50;91.50
14411;DHT22;7290;50.854;4.354;2023-04-19T10:59:12;26.80;90.70
14411;DHT22;7290;50.854;4.354;2023-04-19T11:01:47;23.70;92.80
14411;DHT22;7290;50.854;4.354;2023-04-19T11:04:15;24.20;93.30
14411;DHT22;7290;50.854;4.354;2023-04-19T11:06:57;24.80;92.80
14411;DHT22;7290;50.854;4.354;2023-04-19T11:09:27;25.10;92.00
14411;DHT22;7290;50.854;4.354;2023-04-19T11:11:57;23.10;93.20
14411;DHT22;7290;50.854;4.354;2023-04-19T11:14:24;20.00;97.40
14411;DHT22;7290;50.854;4.354;2023-04-19T11:16:51;19.60;97.90
14411;DHT22;7290;50.854;4.354;2023-04-19T11:19:18;20.70;97.60
14411;DHT22;7290;50.854;4.354;2023-04-19T11:21:44;23.10;94.50
14411;DHT22;7290;50.854;4.354;2023-04-19T11:24:11;25.00;92.40
14411;DHT22;7290;50.854;4.354;2023-04-19T11:26:38;26.10;91.00
14411;DHT22;7290;50.854;4.354;2023-04-19T11:29:04;26.30;90.40
14411;DHT22;7290;50.854;4.354;2023-04-19T11:31:31;25.10;91.00
14411;DHT22;7290;50.854;4.354;2023-04-19T11:33:58;23.60;92.00
14411;DHT22;7290;50.854;4.354;2023-04-19T11:36:24;23.10;93.30
14411;DHT22;7290;50.854;4.354;2023-04-19T11:38:51;24.20;91.80
14411;DHT22;7290;50.854;4.354;2023-04-19T11:41:17;25.70;90.40
14411;DHT22;7290;50.854;4.354;2023-04-19T11:43:44;25.30;90.20
14411;DHT22;7290;50.854;4.354;2023-04-19T11:46:11;25.00;90.50
14411;DHT22;7290;50.854;4.354;2023-04-19T11:48:49;23.70;91.40
14411;DHT22;7290;50.854;4.354;2023-04-19T11:51:16;23.30;92.10
14411;DHT22;7290;50.854;4.354;2023-04-19T11:53:43;23.70;91.70
14411;DHT22;7290;50.854;4.354;2023-04-19T11:56:09;23.70;92.00
14411;DHT22;7290;50.854;4.354;2023-04-19T11:58:36;24.10;91.20
14411;DHT22;7290;50.854;4.354;2023-04-19T12:01:05;24.90;90.30
14411;DHT22;7290;50.854;4.354;2023-04-19T12:03:32;25.00;88.90
14411;DHT22;7290;50.854;4.354;2023-04-19T12:06:01;22.60;91.10
14411;DHT22;7290;50.854;4.354;2023-04-19T12:08:30;22.80;91.40
14411;DHT22;7290;50.854;4.354;2023-04-19T12:10:57;23.10;91.50
14411;DHT22;7290;50.854;4.354;2023-04-19T12:13:24;23.00;90.90
14411;DHT22;7290;50.854;4.354;2023-04-19T12:15:51;24.00;90.50
14411;DHT22;7290;50.854;4.354;2023-04-19T12:18:17;24.00;89.00
14411;DHT22;7290;50.854;4.354;2023-04-19T12:20:44;23.30;90.00
14411;DHT22;7290;50.854;4.354;2023-04-19T12:23:11;22.70;90.10
14411;DHT22;7290;50.854;4.354;2023-04-19T12:25:40;20.70;92.40
14411;DHT22;7290;50.854;4.354;2023-04-19T12:28:07;21.50;91.80
14411;DHT22;7290;50.854;4.354;2023-04-19T12:30:34;21.50;92.00
14411;DHT22;7290;50.854;4.354;2023-04-19T12:33:02;22.20;91.10
14411;DHT22;7290;50.854;4.354;2023-04-19T12:35:28;22.70;90.70
14411;DHT22;7290;50.854;4.354;2023-04-19T12:37:56;22.30;90.00
14411;DHT22;7290;50.854;4.354;2023-04-19T12:40:23;22.20;89.50
14411;DHT22;7290;50.854;4.354;2023-04-19T12:42:50;20.70;90.40
14411;DHT22;7290;50.854;4.354;2023-04-19T12:45:16;19.10;91.90
14411;DHT22;7290;50.854;4.354;2023-04-19T12:47:43;18.20;92.80
14411;DHT22;7290;50.854;4.354;2023-04-19T12:50:11;18.50;92.90
14411;DHT22;7290;50.854;4.354;2023-04-19T12:52:38;18.70;92.50
14411;DHT22;7290;50.854;4.354;2023-04-19T12:55:05;18.90;91.40
14411;DHT22;7290;50.854;4.354;2023-04-19T12:57:32;19.00;91.30
14411;DHT22;7290;50.854;4.354;2023-04-19T12:59:58;18.40;91.60
14411;DHT22;7290;50.854;4.354;2023-04-19T13:02:24;18.50;91.50
14411;DHT22;7290;50.854;4.354;2023-04-19T13:04:50;18.60;91.50
14411;DHT22;7290;50.854;4.354;2023-04-19T13:07:16;17.90;91.20
14411;DHT22;7290;50.854;4.354;2023-04-19T13:09:42;18.10;91.40
14411;DHT22;7290;50.854;4.354;2023-04-19T13:12:08;18.40;91.10
14411;DHT22;7290;50.854;4.354;2023-04-19T13:14:35;18.70;90.40
14411;DHT22;7290;50.854;4.354;2023-04-19T13:17:01;18.80;90.30
14411;DHT22;7290;50.854;4.354;2023-04-19T13:19:27;19.00;90.00
14411;DHT22;7290;50.854;4.354;2023-04-19T13:21:54;18.30;90.00
14411;DHT22;7290;50.854;4.354;2023-04-19T13:24:20;17.70;90.70
14411;DHT22;7290;50.854;4.354;2023-04-19T13:26:46;17.60;90.50
14411;DHT22;7290;50.854;4.354;2023-04-19T13:29:12;17.70;90.80
14411;DHT22;7290;50.854;4.354;2023-04-19T13:31:39;17.30;90.80
14411;DHT22;7290;50.854;4.354;2023-04-19T13:34:07;17.70;90.40
14411;DHT22;7290;50.854;4.354;2023-04-19T13:36:33;17.90;90.00
14411;DHT22;7290;50.854;4.354;2023-04-19T13:39:00;18.40;87.50
14411;DHT22;7290;50.854;4.354;2023-04-19T13:41:26;18.00;85.40
14411;DHT22;7290;50.854;4.354;2023-04-19T13:43:52;17.80;85.80
14411;DHT22;7290;50.854;4.354;2023-04-19T13:46:18;17.80;85.70
14411;DHT22;7290;50.854;4.354;2023-04-19T13:48:45;17.40;86.10
14411;DHT22;7290;50.854;4.354;2023-04-19T13:51:11;17.80;85.40
14411;DHT22;7290;50.854;4.354;2023-04-19T13:53:37;17.80;84.00
14411;DHT22;7290;50.854;4.354;2023-04-19T13:56:06;17.80;83.80
14411;DHT22;7290;50.854;4.354;2023-04-19T13:58:34;17.10;83.80
14411;DHT22;7290;50.854;4.354;2023-04-19T14:01:00;17.60;84.40
14411;DHT22;7290;50.854;4.354;2023-04-19T14:03:26;17.90;82.80
14411;DHT22;7290;50.854;4.354;2023-04-19T14:05:52;18.20;81.60
14411;DHT22;7290;50.854;4.354;2023-04-19T14:08:18;17.70;81.20
14411;DHT22;7290;50.854;4.354;2023-04-19T14:10:45;17.60;82.20
14411;DHT22;7290;50.854;4.354;2023-04-19T14:13:11;17.20;80.50
14411;DHT22;7290;50.854;4.354;2023-04-19T14:15:37;17.20;81.60
14411;DHT22;7290;50.854;4.354;2023-04-19T14:18:03;17.60;81.10
14411;DHT22;7290;50.854;4.354;2023-04-19T14:20:30;17.90;80.10
14411;DHT22;7290;50.854;4.354;2023-04-19T14:22:56;17.80;79.50
14411;DHT22;7290;50.854;4.354;2023-04-19T14:25:24;17.80;79.80
14411;DHT22;7290;50.854;4.354;2023-04-19T14:27:50;17.30;80.20
14411;DHT22;7290;50.854;4.354;2023-04-19T14:30:17;17.60;80.60
14411;DHT22;7290;50.854;4.354;2023-04-19T14:32:43;17.90;80.40
14411;DHT22;7290;50.854;4.354;2023-04-19T14:35:09;18.30;80.20
14411;DHT22;7290;50.854;4.354;2023-04-19T14:37:36;18.60;78.50
14411;DHT22;7290;50.854;4.354;2023-04-19T14:40:04;18.70;74.60
14411;DHT22;7290;50.854;4.354;2023-04-19T14:42:31;18.60;75.40
14411;DHT22;7290;50.854;4.354;2023-04-19T14:44:57;18.70;74.00
14411;DHT22;7290;50.854;4.354;2023-04-19T14:47:23;18.60;74.20
14411;DHT22;7290;50.854;4.354;2023-04-19T14:49:49;18.20;73.50
14411;DHT22;7290;50.854;4.354;2023-04-19T14:52:16;18.10;73.20
14411;DHT22;7290;50.854;4.354;2023-04-19T14:54:42;17.60;74.10
14411;DHT22;7290;50.854;4.354;2023-04-19T14:57:08;17.60;75.50
14411;DHT22;7290;50.854;4.354;2023-04-19T14:59:35;17.90;75.60
14411;DHT22;7290;50.854;4.354;2023-04-19T15:02:01;18.00;76.00
14411;DHT22;7290;50.854;4.354;2023-04-19T15:04:27;17.60;76.90
14411;DHT22;7290;50.854;4.354;2023-04-19T15:06:53;17.60;75.70
14411;DHT22;7290;50.854;4.354;2023-04-19T15:09:19;17.60;75.30
14411;DHT22;7290;50.854;4.354;2023-04-19T15:11:45;17.50;76.40
14411;DHT22;7290;50.854;4.354;2023-04-19T15:14:12;17.60;77.00
14411;DHT22;7290;50.854;4.354;2023-04-19T15:16:38;17.90;75.70
14411;DHT22;7290;50.854;4.354;2023-04-19T15:19:04;17.90;74.20
14411;DHT22;7290;50.854;4.354;2023-04-19T15:21:32;17.70;74.00
14411;DHT22;7290;50.854;4.354;2023-04-19T15:23:58;17.50;74.60
14411;DHT22;7290;50.854;4.354;2023-04-19T15:26:24;17.80;74.20
14411;DHT22;7290;50.854;4.354;2023-04-19T15:28:51;18.20;73.40
14411;DHT22;7290;50.854;4.354;2023-04-19T15:31:18;18.40;73.20
14411;DHT22;7290;50.854;4.354;2023-04-19T15:33:44;18.60;72.90
14411;DHT22;7290;50.854;4.354;2023-04-19T15:36:10;17.80;73.40
14411;DHT22;7290;50.854;4.354;2023-04-19T15:38:36;17.50;73.40
14411;DHT22;7290;50.854;4.354;2023-04-19T15:41:03;17.70;73.20
14411;DHT22;7290;50.854;4.354;2023-04-19T15:43:29;18.10;70.50
14411;DHT22;7290;50.854;4.354;2023-04-19T15:45:55;18.00;70.20